Time;durP1;ratioP1;P1;durP2;ratioP2;P2;SDS_P1;SDS_P2;PMS_P1;PMS_P2;Temp;Humidity;BMP_temperature;BMP_pressure;BME280_temperature;BME280_humidity;BME280_pressure;Samples;Min_cycle;Max_cycle;Signal;HPM_P1;HPM_P2
2023/01/09 00:01:57;;;;;;;40.17;20.15;;;2.40;99.90;;;;;;5038328;28;20394;-77
2023/01/09 00:04:22;;;;;;;42.50;20.10;;;2.40;99.90;;;;;;5037244;28;20034;-78
2023/01/09 00:06:52;;;;;;;45.60;21.27;;;2.40;99.90;;;;;;5037171;28;20033;-77
2023/01/09 00:09:22;;;;;;;44.75;20.52;;;2.40;99.90;;;;;;5035520;28;20025;-77
2023/01/09 00:11:49;;;;;;;44.47;20.38;;;2.50;99.90;;;;;;5035481;28;20422;-77
2023/01/09 00:14:15;;;;;;;39.42;20.60;;;2.50;99.90;;;;;;5035625;28;20383;-77
2023/01/09 00:16:41;;;;;;;44.25;21.52;;;2.50;99.90;;;;;;5035453;28;20425;-77
2023/01/09 00:19:07;;;;;;;38.97;19.67;;;2.60;99.90;;;;;;5035875;28;20022;-77
2023/01/09 00:21:33;;;;;;;44.30;19.80;;;2.60;99.90;;;;;;5037103;28;20070;-77
2023/01/09 00:23:58;;;;;;;40.95;20.17;;;2.70;99.90;;;;;;5038051;28;20029;-77
2023/01/09 00:26:24;;;;;;;40.92;22.23;;;2.60;99.90;;;;;;5037074;28;20379;-77
2023/01/09 00:28:52;;;;;;;44.95;21.25;;;2.70;99.90;;;;;;5035432;28;20422;-77
2023/01/09 00:31:19;;;;;;;39.78;20.02;;;2.60;99.90;;;;;;5035833;28;20056;-77
2023/01/09 00:34:01;;;;;;;42.85;20.27;;;2.70;99.90;;;;;;5037068;28;20029;-77
2023/01/09 00:36:27;;;;;;;39.90;20.10;;;2.70;99.90;;;;;;5037399;28;20025;-77
2023/01/09 00:38:53;;;;;;;39.03;20.48;;;2.70;99.90;;;;;;5038310;28;20109;-77
2023/01/09 00:41:57;;;;;;;43.10;21.13;;;2.70;99.90;;;;;;5039152;28;20408;-77
2023/01/09 00:44:34;;;;;;;42.50;19.98;;;2.70;99.90;;;;;;5036070;28;20095;-77
2023/01/09 00:47:06;;;;;;;37.92;19.35;;;2.70;99.90;;;;;;5039984;28;20032;-77
2023/01/09 00:49:34;;;;;;;43.65;21.20;;;2.70;99.90;;;;;;5041243;28;20018;-77
2023/01/09 00:52:01;;;;;;;40.97;20.13;;;2.70;99.90;;;;;;5041471;28;20025;-77
2023/01/09 00:54:28;;;;;;;41.53;20.52;;;2.80;99.90;;;;;;5041561;28;20044;-77
2023/01/09 00:56:55;;;;;;;41.40;21.50;;;2.80;99.90;;;;;;5041392;28;20115;-77
2023/01/09 00:59:21;;;;;;;38.85;20.17;;;2.80;99.90;;;;;;5041192;28;20053;-77
2023/01/09 01:01:47;;;;;;;41.53;20.55;;;2.80;99.90;;;;;;5041092;28;20025;-77
2023/01/09 01:09:41;;;;;;;46.42;21.85;;;2.80;99.90;;;;;;5041882;28;20445;-77
2023/01/09 01:12:07;;;;;;;41.47;21.30;;;2.80;99.90;;;;;;5042265;28;20081;-77
2023/01/09 01:14:37;;;;;;;43.65;22.75;;;2.80;99.90;;;;;;5042817;28;20068;-77
2023/01/09 01:17:03;;;;;;;45.47;22.83;;;2.80;99.90;;;;;;5040767;28;20036;-77
2023/01/09 01:19:29;;;;;;;42.80;21.23;;;2.80;99.90;;;;;;5040165;28;20025;-76
2023/01/09 01:21:55;;;;;;;43.33;22.35;;;2.80;99.90;;;;;;5040548;28;20026;-78
2023/01/09 01:24:21;;;;;;;40.53;21.00;;;2.80;99.90;;;;;;5039675;28;20079;-77
2023/01/09 01:26:47;;;;;;;41.85;21.33;;;2.80;99.90;;;;;;5038960;28;20029;-77
2023/01/09 01:29:13;;;;;;;40.53;20.90;;;2.80;99.90;;;;;;5039891;28;20022;-76
2023/01/09 01:31:39;;;;;;;41.25;21.70;;;2.80;99.90;;;;;;5038969;28;20450;-77
2023/01/09 01:34:05;;;;;;;50.45;22.50;;;2.80;99.90;;;;;;5039215;28;20036;-78
2023/01/09 01:36:31;;;;;;;51.38;23.35;;;2.80;99.90;;;;;;5038169;28;20034;-78
2023/01/09 01:38:57;;;;;;;46.75;22.88;;;2.90;99.90;;;;;;5038101;28;20052;-78
2023/01/09 01:41:28;;;;;;;52.00;22.52;;;2.80;99.90;;;;;;5038234;28;20452;-78
2023/01/09 01:44:05;;;;;;;46.35;22.50;;;2.80;99.90;;;;;;5038213;28;20413;-77
2023/01/09 01:46:32;;;;;;;46.88;23.13;;;2.90;99.90;;;;;;5037041;28;20045;-78
2023/01/09 01:49:12;;;;;;;47.95;21.77;;;2.80;99.90;;;;;;5038317;28;20367;-77
2023/01/09 01:51:49;;;;;;;54.60;23.88;;;2.80;99.90;;;;;;5036973;28;20026;-78
2023/01/09 01:54:20;;;;;;;48.15;21.90;;;2.80;99.90;;;;;;5036403;28;20075;-78
2023/01/09 01:56:49;;;;;;;54.13;22.63;;;2.80;99.90;;;;;;5037697;28;20017;-77
2023/01/09 01:59:19;;;;;;;;;;;2.80;99.90;;;;;;5036789;28;20037;-77
2023/01/09 02:01:48;;;;;;;52.22;24.05;;;2.80;99.90;;;;;;5033307;28;19995;-78
2023/01/09 02:04:14;;;;;;;52.63;24.20;;;2.80;99.90;;;;;;5037368;28;20025;-78
2023/01/09 02:06:42;;;;;;;45.58;22.40;;;2.80;99.90;;;;;;5037721;28;20026;-78
2023/01/09 02:09:10;;;;;;;50.15;22.73;;;2.80;99.90;;;;;;5037282;28;20029;-77
2023/01/09 02:11:35;;;;;;;52.05;23.15;;;2.80;99.90;;;;;;5037310;28;20067;-77
2023/01/09 02:14:01;;;;;;;52.63;23.83;;;2.80;99.90;;;;;;5038259;28;20026;-77
2023/01/09 02:16:33;;;;;;;53.58;23.55;;;2.80;99.90;;;;;;5038273;28;20021;-77
2023/01/09 02:19:36;;;;;;;54.40;25.17;;;2.80;99.90;;;;;;5037120;28;20018;-77
2023/01/09 02:22:24;;;;;;;50.28;23.45;;;2.80;99.90;;;;;;5034734;28;20455;-78
2023/01/09 02:25:33;;;;;;;52.13;22.80;;;2.80;99.90;;;;;;5037344;28;20123;-77
2023/01/09 02:28:05;;;;;;;51.22;23.33;;;2.80;99.90;;;;;;5024984;28;20038;-77
2023/01/09 02:30:47;;;;;;;50.67;22.70;;;2.80;99.90;;;;;;5037276;28;20029;-78
2023/01/09 02:33:15;;;;;;;53.60;24.30;;;2.80;99.90;;;;;;5036210;28;20030;-78
2023/01/09 02:35:46;;;;;;;49.72;23.08;;;2.80;99.90;;;;;;5035803;28;20099;-78
2023/01/09 02:38:12;;;;;;;52.90;24.30;;;2.80;99.90;;;;;;5032695;28;20036;-78
2023/01/09 02:41:01;;;;;;;58.42;23.75;;;2.80;99.90;;;;;;5033630;28;20025;-77
2023/01/09 02:43:27;;;;;;;47.60;22.80;;;2.80;99.90;;;;;;5032994;28;20368;-78
2023/01/09 02:45:52;;;;;;;54.80;23.02;;;2.80;99.90;;;;;;5034538;28;20041;-78
2023/01/09 02:48:18;;;;;;;54.60;25.23;;;2.80;99.90;;;;;;5034980;28;20418;-77
2023/01/09 02:50:55;;;;;;;51.63;23.35;;;2.80;99.90;;;;;;5034676;28;20026;-77
2023/01/09 02:53:56;;;;;;;60.00;24.13;;;2.80;99.90;;;;;;5033689;28;20053;-78
2023/01/09 02:56:34;;;;;;;53.17;23.27;;;2.80;99.90;;;;;;5035305;28;20087;-77
2023/01/09 02:59:15;;;;;;;49.55;23.60;;;2.80;99.90;;;;;;5033983;28;20533;-77
2023/01/09 03:02:38;;;;;;;48.80;21.95;;;2.80;99.90;;;;;;5033878;28;20384;-77
2023/01/09 03:05:16;;;;;;;46.45;21.83;;;2.80;99.90;;;;;;5017643;28;20102;-77
2023/01/09 03:08:05;;;;;;;52.40;23.05;;;2.80;99.90;;;;;;5000768;28;20120;-77
2023/01/09 03:10:40;;;;;;;50.90;21.70;;;2.80;99.90;;;;;;5015401;28;20042;-77
2023/01/09 03:13:10;;;;;;;53.33;22.67;;;2.80;99.90;;;;;;5016032;28;20434;-77
2023/01/09 03:15:40;;;;;;;49.55;23.25;;;2.80;99.90;;;;;;5017094;28;20046;-78
2023/01/09 03:18:08;;;;;;;48.25;22.77;;;2.80;99.90;;;;;;5018587;28;20116;-78
2023/01/09 03:20:36;;;;;;;46.42;22.00;;;2.80;99.90;;;;;;5019562;28;20022;-78
2023/01/09 03:23:04;;;;;;;45.13;22.52;;;2.90;99.90;;;;;;5002945;28;20052;-78
2023/01/09 03:25:30;;;;;;;51.15;22.23;;;2.90;99.90;;;;;;5002684;28;20486;-77
2023/01/09 03:28:06;;;;;;;41.80;21.55;;;2.90;99.90;;;;;;5018282;28;20080;-78
2023/01/09 03:30:34;;;;;;;48.65;22.05;;;2.90;99.90;;;;;;5019578;28;20044;-77
2023/01/09 03:33:00;;;;;;;43.95;21.50;;;2.90;99.90;;;;;;5019394;28;20426;-78
2023/01/09 03:35:26;;;;;;;44.00;22.65;;;2.90;99.90;;;;;;5027217;28;20478;-77
2023/01/09 03:37:52;;;;;;;48.03;21.70;;;3.00;99.90;;;;;;5040836;28;20036;-78
2023/01/09 03:40:18;;;;;;;42.13;21.23;;;3.00;99.90;;;;;;5039907;28;20109;-78
2023/01/09 03:42:44;;;;;;;48.25;22.48;;;3.00;99.90;;;;;;5040505;28;20052;-77
2023/01/09 03:45:10;;;;;;;45.00;22.00;;;3.00;99.90;;;;;;5040212;28;20418;-77
2023/01/09 03:47:35;;;;;;;42.67;21.40;;;3.00;99.90;;;;;;5040468;28;20030;-78
2023/01/09 03:50:01;;;;;;;39.33;20.20;;;3.00;99.90;;;;;;5040077;28;20112;-77
2023/01/09 03:52:27;;;;;;;44.35;20.42;;;3.00;99.90;;;;;;5040284;28;20030;-78
2023/01/09 03:54:52;;;;;;;45.90;21.85;;;3.00;99.90;;;;;;5040197;28;20087;-77
2023/01/09 03:57:18;;;;;;;43.80;21.00;;;3.00;99.90;;;;;;5038889;28;20034;-77
2023/01/09 03:59:44;;;;;;;46.97;21.45;;;3.00;99.90;;;;;;5037324;28;20040;-77
2023/01/09 04:02:10;;;;;;;43.10;22.05;;;3.00;99.90;;;;;;5035718;28;20167;-77
2023/01/09 04:04:35;;;;;;;44.17;22.33;;;2.90;99.90;;;;;;5036568;28;20033;-77
2023/01/09 04:07:01;;;;;;;45.22;21.77;;;2.90;99.90;;;;;;5034823;28;20425;-77
2023/01/09 04:09:26;;;;;;;47.45;22.63;;;2.90;99.90;;;;;;5035764;28;20029;-77
2023/01/09 04:11:52;;;;;;;45.22;21.00;;;2.90;99.90;;;;;;5036980;28;20474;-77
2023/01/09 04:14:18;;;;;;;44.17;22.25;;;2.90;99.90;;;;;;5038774;28;20065;-78
2023/01/09 04:16:43;;;;;;;42.28;20.42;;;2.90;99.90;;;;;;5039877;28;20471;-78
2023/01/09 04:19:09;;;;;;;49.00;21.92;;;2.90;99.90;;;;;;5038510;28;20029;-77
2023/01/09 04:21:34;;;;;;;42.00;20.05;;;2.90;99.90;;;;;;5039130;28;20036;-77
2023/01/09 04:24:01;;;;;;;42.80;20.13;;;3.00;99.90;;;;;;5039725;28;20075;-77
2023/01/09 04:26:27;;;;;;;40.35;19.92;;;3.00;99.90;;;;;;5039169;28;20041;-78
2023/01/09 04:28:53;;;;;;;43.58;20.48;;;3.00;99.90;;;;;;5038832;28;20071;-77
2023/01/09 04:31:19;;;;;;;41.00;20.13;;;3.10;99.90;;;;;;5040098;28;20474;-78
2023/01/09 04:33:44;;;;;;;41.40;19.48;;;3.10;99.90;;;;;;5040145;28;20029;-78
2023/01/09 04:36:10;;;;;;;37.45;19.33;;;3.20;99.90;;;;;;5040155;28;20029;-78
2023/01/09 04:38:36;;;;;;;39.67;19.42;;;3.20;99.90;;;;;;5041034;28;20059;-78
2023/01/09 04:41:01;;;;;;;37.92;18.73;;;3.30;99.90;;;;;;5039177;28;20049;-77
2023/01/09 04:43:27;;;;;;;38.75;20.05;;;3.30;99.90;;;;;;5040682;28;20071;-78
2023/01/09 04:45:53;;;;;;;39.92;20.42;;;3.40;99.90;;;;;;5039785;28;20029;-78
2023/01/09 04:48:18;;;;;;;37.55;18.85;;;3.40;99.90;;;;;;5040071;28;20029;-77
2023/01/09 04:50:44;;;;;;;38.90;19.67;;;3.40;99.90;;;;;;5039447;28;20033;-78
2023/01/09 04:53:10;;;;;;;41.92;19.23;;;3.40;99.90;;;;;;5038288;28;20030;-78
2023/01/09 04:55:35;;;;;;;37.80;19.05;;;3.40;99.90;;;;;;5039164;28;20029;-78
2023/01/09 04:58:01;;;;;;;42.30;19.52;;;3.40;99.90;;;;;;5039668;28;20079;-78
2023/01/09 05:00:26;;;;;;;37.67;18.23;;;3.40;99.90;;;;;;5039997;28;20025;-78
2023/01/09 05:02:52;;;;;;;33.22;18.13;;;3.50;99.90;;;;;;5038656;28;20022;-77
2023/01/09 05:05:18;;;;;;;38.13;18.83;;;3.50;99.90;;;;;;5038239;28;20044;-77
2023/01/09 05:07:43;;;;;;;32.72;17.63;;;3.50;99.90;;;;;;5038079;28;20030;-77
2023/01/09 05:10:10;;;;;;;35.15;18.60;;;3.50;99.90;;;;;;5037664;28;20033;-79
2023/01/09 05:12:36;;;;;;;33.55;17.88;;;3.50;99.90;;;;;;5038617;28;20021;-79
2023/01/09 05:15:03;;;;;;;33.38;17.55;;;3.50;99.90;;;;;;5039382;28;20032;-77
2023/01/09 05:17:29;;;;;;;34.80;16.75;;;3.50;99.90;;;;;;5038790;28;20025;-77
2023/01/09 05:19:55;;;;;;;32.97;17.25;;;3.60;99.90;;;;;;5038157;28;20025;-78
2023/01/09 05:22:20;;;;;;;30.38;16.38;;;3.60;99.90;;;;;;5038704;28;20474;-79
2023/01/09 05:24:46;;;;;;;32.42;17.48;;;3.60;99.90;;;;;;5039264;28;20037;-78
2023/01/09 05:27:12;;;;;;;32.83;17.08;;;3.60;99.90;;;;;;5038393;28;20046;-80
2023/01/09 05:29:37;;;;;;;33.55;18.02;;;3.60;99.90;;;;;;5039197;28;20041;-79
2023/01/09 05:32:03;;;;;;;32.50;17.10;;;3.60;99.90;;;;;;5038471;28;20025;-79
2023/01/09 05:34:29;;;;;;;33.72;16.58;;;3.60;99.90;;;;;;5039050;28;20036;-78
2023/01/09 05:36:54;;;;;;;32.30;17.13;;;3.60;99.90;;;;;;5038579;28;20031;-79
2023/01/09 05:39:20;;;;;;;34.10;16.35;;;3.60;99.90;;;;;;5039395;28;20068;-77
2023/01/09 05:41:46;;;;;;;37.13;19.02;;;3.60;99.90;;;;;;5038246;28;20025;-78
2023/01/09 05:44:11;;;;;;;35.72;18.35;;;3.60;99.90;;;;;;5038491;28;20086;-79
2023/01/09 05:46:37;;;;;;;34.80;17.08;;;3.70;99.90;;;;;;5036668;28;20029;-78
2023/01/09 05:49:03;;;;;;;33.72;16.80;;;3.70;99.90;;;;;;5038621;28;20510;-79
2023/01/09 05:51:30;;;;;;;31.80;17.02;;;3.70;99.90;;;;;;5037939;28;20529;-81
2023/01/09 05:53:57;;;;;;;34.58;17.08;;;3.70;99.90;;;;;;5037566;28;20075;-80
2023/01/09 05:56:22;;;;;;;33.95;16.95;;;3.70;99.90;;;;;;5037406;28;20490;-80
2023/01/09 05:58:48;;;;;;;30.05;16.70;;;3.70;99.90;;;;;;5037287;28;20087;-78
2023/01/09 06:01:14;;;;;;;39.10;19.02;;;3.80;99.90;;;;;;5038131;28;20121;-78
2023/01/09 06:03:40;;;;;;;40.60;19.48;;;3.80;99.90;;;;;;5037827;28;20025;-81
2023/01/09 06:06:06;;;;;;;44.78;21.85;;;3.80;99.90;;;;;;5037780;28;20129;-79
2023/01/09 06:08:32;;;;;;;50.55;24.05;;;3.80;99.90;;;;;;5038732;28;20053;-78
2023/01/09 06:10:58;;;;;;;41.20;20.75;;;3.70;99.90;;;;;;5038076;28;20029;-79
2023/01/09 06:13:23;;;;;;;43.28;20.63;;;3.70;99.90;;;;;;5039217;28;20032;-79
2023/01/09 06:15:49;;;;;;;38.45;19.88;;;3.70;99.90;;;;;;5037805;28;20082;-79
2023/01/09 06:18:15;;;;;;;43.78;20.15;;;3.70;99.90;;;;;;5037667;28;20073;-79
2023/01/09 06:20:42;;;;;;;43.10;20.98;;;3.60;99.90;;;;;;5038758;28;20057;-80
2023/01/09 06:23:08;;;;;;;39.00;19.95;;;3.60;99.90;;;;;;5037044;28;20053;-79
2023/01/09 06:25:34;;;;;;;38.75;19.33;;;3.60;99.90;;;;;;5037844;28;20038;-79
2023/01/09 06:27:59;;;;;;;39.83;19.38;;;3.60;99.90;;;;;;5038233;28;20053;-80
2023/01/09 06:30:25;;;;;;;41.13;21.05;;;3.60;99.90;;;;;;5037313;28;20075;-79
2023/01/09 06:32:51;;;;;;;40.38;19.65;;;3.60;99.90;;;;;;5037411;28;20449;-79
2023/01/09 06:35:21;;;;;;;38.95;19.50;;;3.60;99.90;;;;;;5037059;28;20037;-79
2023/01/09 06:37:50;;;;;;;39.85;19.98;;;3.70;99.90;;;;;;5039257;28;20066;-78
2023/01/09 06:40:16;;;;;;;35.30;18.95;;;3.70;99.90;;;;;;5040191;28;20025;-79
2023/01/09 06:42:46;;;;;;;37.85;18.77;;;3.80;99.90;;;;;;5042320;28;20124;-79
2023/01/09 06:45:12;;;;;;;35.55;18.38;;;3.80;99.90;;;;;;5040525;28;20045;-79
2023/01/09 06:47:38;;;;;;;36.92;19.10;;;3.80;99.90;;;;;;5041082;28;20029;-79
2023/01/09 06:50:05;;;;;;;40.25;19.48;;;3.80;99.90;;;;;;5042170;28;20093;-78
2023/01/09 06:52:30;;;;;;;38.70;19.05;;;3.80;99.90;;;;;;5042432;28;20052;-80
2023/01/09 06:54:56;;;;;;;35.85;19.00;;;3.80;99.90;;;;;;5041342;28;20087;-79
2023/01/09 06:57:22;;;;;;;33.95;18.40;;;3.80;99.90;;;;;;5041936;28;20029;-80
2023/01/09 06:59:47;;;;;;;33.10;18.42;;;3.80;99.90;;;;;;5037087;28;20113;-78
2023/01/09 07:02:18;;;;;;;33.63;18.65;;;3.80;99.90;;;;;;5038180;28;20032;-78
2023/01/09 07:04:44;;;;;;;30.50;16.40;;;3.80;99.90;;;;;;5038183;28;20029;-79
2023/01/09 07:07:10;;;;;;;34.25;17.45;;;3.90;99.90;;;;;;5040491;28;20052;-79
2023/01/09 07:09:36;;;;;;;32.63;17.45;;;3.90;99.90;;;;;;5039853;28;20022;-78
2023/01/09 07:12:01;;;;;;;31.40;17.30;;;4.00;99.90;;;;;;5040040;28;20470;-80
2023/01/09 07:14:27;;;;;;;30.40;17.65;;;4.00;99.90;;;;;;5040127;28;20025;-80
2023/01/09 07:16:53;;;;;;;35.28;19.50;;;4.00;99.90;;;;;;5040860;28;20025;-79
2023/01/09 07:19:18;;;;;;;32.90;18.38;;;4.00;99.90;;;;;;5039680;28;20037;-79
2023/01/09 07:21:44;;;;;;;35.10;20.13;;;3.90;99.90;;;;;;5037238;28;20026;-79
2023/01/09 07:24:09;;;;;;;37.78;19.63;;;3.90;99.90;;;;;;5037949;28;20052;-80
2023/01/09 07:26:35;;;;;;;34.25;18.48;;;3.80;99.90;;;;;;5038361;28;20041;-80
2023/01/09 07:29:01;;;;;;;36.80;19.60;;;3.80;99.90;;;;;;5037571;28;20034;-81
2023/01/09 07:31:26;;;;;;;41.92;19.13;;;3.80;99.90;;;;;;5037192;28;20022;-81
2023/01/09 07:33:52;;;;;;;36.65;19.63;;;3.70;99.90;;;;;;5035746;28;20025;-78
2023/01/09 07:36:18;;;;;;;39.70;21.05;;;3.70;99.90;;;;;;5036017;28;20064;-80
2023/01/09 07:38:44;;;;;;;40.08;20.63;;;3.70;99.90;;;;;;5037843;28;20026;-80
2023/01/09 07:41:10;;;;;;;37.30;18.88;;;3.60;99.90;;;;;;5037712;28;20110;-79
2023/01/09 07:43:37;;;;;;;31.15;18.85;;;3.60;99.90;;;;;;5035906;28;20122;-80
2023/01/09 07:46:03;;;;;;;34.10;18.73;;;3.70;99.90;;;;;;5036608;28;20068;-80
2023/01/09 07:48:28;;;;;;;36.55;19.42;;;3.70;99.90;;;;;;5036596;28;20079;-79
2023/01/09 07:50:54;;;;;;;40.50;19.88;;;3.70;99.90;;;;;;5035520;28;20481;-80
2023/01/09 07:53:20;;;;;;;42.28;21.02;;;3.60;99.90;;;;;;5035852;28;20029;-79
2023/01/09 07:55:45;;;;;;;38.40;19.30;;;3.60;99.90;;;;;;5035212;28;20038;-79
2023/01/09 07:58:11;;;;;;;36.03;18.52;;;3.60;99.90;;;;;;5035301;28;20026;-80
2023/01/09 08:00:37;;;;;;;37.58;18.02;;;3.70;99.90;;;;;;5036674;28;20079;-80
2023/01/09 08:03:03;;;;;;;35.05;18.35;;;3.70;99.90;;;;;;5035257;28;20025;-80
2023/01/09 08:05:29;;;;;;;37.35;18.38;;;3.70;99.90;;;;;;5036492;28;20383;-80
2023/01/09 08:07:54;;;;;;;36.08;17.92;;;3.70;99.90;;;;;;5036413;28;20026;-80
2023/01/09 08:10:20;;;;;;;33.20;17.27;;;3.70;99.90;;;;;;5035343;28;20025;-80
2023/01/09 08:12:47;;;;;;;35.13;17.80;;;3.70;99.90;;;;;;5035020;28;20025;-80
2023/01/09 08:15:13;;;;;;;34.72;17.52;;;3.70;99.90;;;;;;5036268;28;20037;-80
2023/01/09 08:17:41;;;;;;;31.10;17.02;;;3.70;99.90;;;;;;5035951;28;20386;-79
2023/01/09 08:20:09;;;;;;;35.17;17.67;;;3.70;99.90;;;;;;5039387;28;20120;-79
2023/01/09 08:22:35;;;;;;;32.70;17.52;;;3.80;99.90;;;;;;5039800;28;20479;-81
2023/01/09 08:25:01;;;;;;;33.25;18.25;;;3.80;99.90;;;;;;5041187;28;20109;-80
2023/01/09 08:27:26;;;;;;;35.72;16.90;;;3.90;99.90;;;;;;5039288;28;20065;-79
2023/01/09 08:29:52;;;;;;;33.50;16.20;;;3.90;99.90;;;;;;5038954;28;20033;-80
2023/01/09 08:32:18;;;;;;;31.20;16.00;;;3.90;99.90;;;;;;5040611;28;20172;-80
2023/01/09 08:34:43;;;;;;;30.95;16.58;;;3.90;99.90;;;;;;5039982;28;20029;-80
2023/01/09 08:37:09;;;;;;;30.45;15.80;;;4.00;99.90;;;;;;5040635;28;20037;-80
2023/01/09 08:39:35;;;;;;;30.48;15.27;;;4.00;99.90;;;;;;5040426;28;20025;-80
2023/01/09 08:47:32;;;;;;;26.90;15.02;;;4.10;99.90;;;;;;5040526;28;20479;-79
2023/01/09 08:49:59;;;;;;;;;;;4.10;99.90;;;;;;5041264;28;20032;-79
2023/01/09 08:52:25;;;;;;;30.08;16.05;;;4.20;99.90;;;;;;5039946;28;19928;-81
2023/01/09 08:54:50;;;;;;;29.20;16.40;;;4.20;99.90;;;;;;5040640;28;20029;-81
2023/01/09 08:57:16;;;;;;;29.15;15.63;;;4.30;99.90;;;;;;5039829;28;20026;-80
2023/01/09 08:59:41;;;;;;;25.85;14.43;;;4.40;99.90;;;;;;5040284;28;20524;-80
2023/01/09 09:02:08;;;;;;;29.30;14.90;;;4.40;99.90;;;;;;5038665;28;20084;-80
2023/01/09 09:04:34;;;;;;;28.40;15.32;;;4.50;99.90;;;;;;5038878;28;20123;-82
2023/01/09 09:06:59;;;;;;;28.75;15.32;;;4.50;99.90;;;;;;5039283;28;20025;-81
2023/01/09 09:09:25;;;;;;;28.27;15.25;;;4.60;99.90;;;;;;5038503;28;20032;-81
2023/01/09 09:11:51;;;;;;;27.13;14.50;;;4.70;99.90;;;;;;5038598;28;20033;-80
2023/01/09 09:17:01;;;;;;;28.70;16.38;;;4.70;99.90;;;;;;5038438;28;20041;-81
2023/01/09 09:19:26;;;;;;;26.13;13.55;;;4.80;99.90;;;;;;5036817;28;20034;-81
2023/01/09 09:21:52;;;;;;;27.80;14.25;;;4.80;99.90;;;;;;5037413;28;20064;-80
2023/01/09 09:24:18;;;;;;;21.83;13.52;;;4.80;99.90;;;;;;5039055;28;20029;-80
2023/01/09 09:26:43;;;;;;;12.48;7.80;;;4.90;99.90;;;;;;5037505;28;20378;-79
2023/01/09 09:29:09;;;;;;;14.20;8.23;;;5.20;99.90;;;;;;5036709;28;20033;-79
2023/01/09 09:31:37;;;;;;;11.90;6.47;;;5.50;99.90;;;;;;5037275;28;20455;-78
2023/01/09 09:34:06;;;;;;;14.85;6.55;;;5.70;99.90;;;;;;5036374;28;20463;-79
2023/01/09 09:36:32;;;;;;;11.30;6.72;;;5.90;99.90;;;;;;5035219;28;20029;-78
2023/01/09 09:38:58;;;;;;;9.00;6.10;;;6.00;99.90;;;;;;5037786;28;20485;-77
2023/01/09 09:44:52;;;;;;;9.95;6.75;;;6.10;99.90;;;;;;5036771;28;20382;-78
2023/01/09 09:47:21;;;;;;;12.35;6.45;;;6.20;99.90;;;;;;5037758;28;20037;-78
2023/01/09 09:49:52;;;;;;;10.02;5.93;;;6.20;99.90;;;;;;5035309;28;20021;-77
2023/01/09 09:52:39;;;;;;;9.77;5.10;;;6.20;99.90;;;;;;5033341;28;20120;-77
2023/01/09 09:55:17;;;;;;;6.95;4.78;;;6.30;99.90;;;;;;5035391;28;20061;-75
2023/01/09 09:57:43;;;;;;;11.77;5.43;;;6.30;99.90;;;;;;5033058;28;20364;-74
2023/01/09 10:00:16;;;;;;;7.78;4.55;;;6.30;99.90;;;;;;5034350;28;20026;-74
2023/01/09 10:02:49;;;;;;;8.90;5.35;;;6.30;99.90;;;;;;5034299;28;20029;-74
2023/01/09 10:05:18;;;;;;;7.32;4.63;;;6.30;99.90;;;;;;5034163;28;20025;-74
2023/01/09 10:07:48;;;;;;;8.93;4.80;;;6.30;99.90;;;;;;5034288;28;20025;-74
2023/01/09 10:10:36;;;;;;;7.07;4.65;;;6.20;99.90;;;;;;5033054;28;20021;-73
2023/01/09 10:14:03;;;;;;;6.30;3.65;;;6.20;99.90;;;;;;5033695;28;20071;-74
2023/01/09 10:16:07;;;;;;;5.95;3.10;;;6.30;99.90;;;;;;5033442;28;20033;-74
2023/01/09 10:18:56;;;;;;;4.15;2.70;;;6.30;99.90;;;;;;5034368;28;20465;-74
2023/01/09 10:21:39;;;;;;;4.95;2.70;;;6.30;99.90;;;;;;5033611;28;20036;-69
2023/01/09 10:24:19;;;;;;;3.08;1.98;;;6.20;99.90;;;;;;5032595;28;20541;-75
2023/01/09 10:26:52;;;;;;;4.05;2.10;;;6.20;99.90;;;;;;5028193;28;20091;-75
2023/01/09 10:29:24;;;;;;;2.60;1.95;;;6.20;99.90;;;;;;5023547;28;20026;-75
2023/01/09 10:32:20;;;;;;;2.55;1.88;;;6.20;99.90;;;;;;5022040;28;20083;-74
2023/01/09 10:34:48;;;;;;;2.33;1.40;;;6.30;99.90;;;;;;4996244;28;20041;-75
2023/01/09 10:37:36;;;;;;;3.80;1.50;;;6.30;99.90;;;;;;5023119;28;20036;-75
2023/01/09 10:40:27;;;;;;;2.40;1.25;;;6.30;99.90;;;;;;5032952;28;20108;-74
2023/01/09 10:43:01;;;;;;;2.65;1.25;;;6.30;99.90;;;;;;5028118;28;20064;-74
2023/01/09 10:45:41;;;;;;;1.00;0.90;;;6.40;99.90;;;;;;5033998;28;20108;-74
2023/01/09 10:48:26;;;;;;;0.63;0.63;;;6.40;99.90;;;;;;5034011;28;20041;-74
2023/01/09 10:50:54;;;;;;;2.25;0.80;;;6.40;99.90;;;;;;5031950;28;20033;-75
2023/01/09 10:53:37;;;;;;;0.50;0.50;;;6.50;99.90;;;;;;5032729;28;20052;-75
2023/01/09 10:56:17;;;;;;;0.93;0.63;;;6.50;99.90;;;;;;5032772;28;20033;-77
2023/01/09 10:58:43;;;;;;;0.82;0.40;;;6.60;99.90;;;;;;5032513;28;20425;-76
2023/01/09 11:01:09;;;;;;;0.88;0.45;;;6.60;99.90;;;;;;5032396;28;20029;-76
2023/01/09 11:03:36;;;;;;;2.00;0.30;;;6.70;99.90;;;;;;5033549;28;20045;-77
2023/01/09 11:06:02;;;;;;;0.98;0.30;;;6.70;99.90;;;;;;5035757;28;20039;-76
2023/01/09 11:08:49;;;;;;;0.47;0.20;;;6.80;99.90;;;;;;5034573;28;20029;-76
2023/01/09 11:11:34;;;;;;;0.73;0.38;;;6.90;99.90;;;;;;5035391;28;20053;-75
2023/01/09 11:14:07;;;;;;;0.70;0.28;;;6.90;99.90;;;;;;5034300;28;20459;-74
2023/01/09 11:16:33;;;;;;;0.20;0.20;;;6.90;99.90;;;;;;5034676;28;20064;-74
2023/01/09 11:19:00;;;;;;;2.40;0.20;;;7.00;99.90;;;;;;5034466;28;20034;-74
2023/01/09 11:21:40;;;;;;;1.67;0.10;;;6.90;99.90;;;;;;5034476;28;20025;-74
2023/01/09 11:24:19;;;;;;;0.13;0.10;;;6.90;99.90;;;;;;5035098;28;20021;-75
2023/01/09 11:26:46;;;;;;;1.15;0.08;;;6.90;99.90;;;;;;5039649;28;20387;-74
2023/01/09 11:29:17;;;;;;;1.67;0.20;;;6.90;99.90;;;;;;5039446;28;20026;-75
2023/01/09 11:31:57;;;;;;;1.95;0.30;;;6.90;99.90;;;;;;5040772;28;20049;-74
2023/01/09 11:34:34;;;;;;;0.40;0.20;;;6.90;99.90;;;;;;5039494;28;20032;-74
2023/01/09 11:37:14;;;;;;;0.57;0.10;;;6.90;99.90;;;;;;5039142;28;20044;-74
2023/01/09 11:39:46;;;;;;;0.28;0.20;;;7.00;99.90;;;;;;5039899;28;20489;-74
2023/01/09 11:42:49;;;;;;;0.20;0.10;;;7.00;99.90;;;;;;5037676;28;20021;-74
2023/01/09 11:45:23;;;;;;;0.35;0.13;;;7.00;99.90;;;;;;5038629;28;20042;-74
2023/01/09 11:47:48;;;;;;;0.50;0.08;;;7.00;99.90;;;;;;5037977;28;20040;-75
2023/01/09 11:50:20;;;;;;;0.20;0.20;;;7.10;99.90;;;;;;5038459;28;20370;-75
2023/01/09 11:53:05;;;;;;;0.73;0.45;;;7.10;99.90;;;;;;5037040;28;20129;-75
2023/01/09 11:55:31;;;;;;;0.30;0.30;;;7.10;99.90;;;;;;5041662;28;20171;-76
2023/01/09 11:57:56;;;;;;;2.92;0.25;;;7.20;99.90;;;;;;5037201;28;20463;-74
2023/01/09 12:00:28;;;;;;;0.57;0.10;;;7.20;99.90;;;;;;5040782;28;20024;-76
2023/01/09 12:03:15;;;;;;;0.65;0.15;;;7.30;99.90;;;;;;5039952;28;20036;-76
2023/01/09 12:06:09;;;;;;;0.65;0.13;;;7.40;99.90;;;;;;5037966;28;20362;-77
2023/01/09 12:08:46;;;;;;;0.45;0.10;;;7.40;99.90;;;;;;5039597;28;20117;-76
2023/01/09 12:11:34;;;;;;;0.10;0.08;;;7.50;99.90;;;;;;5038733;28;20021;-77
2023/01/09 12:14:47;;;;;;;0.52;0.13;;;7.60;99.90;;;;;;5038133;28;20025;-77
2023/01/09 12:17:25;;;;;;;2.25;0.10;;;7.60;99.90;;;;;;5030128;28;20033;-77
2023/01/09 12:20:09;;;;;;;0.95;0.10;;;7.70;99.90;;;;;;5040170;28;20040;-77
2023/01/09 12:23:14;;;;;;;0.85;0.10;;;7.70;99.90;;;;;;5039027;28;20018;-77
2023/01/09 12:26:03;;;;;;;0.17;0.08;;;7.70;99.90;;;;;;5015059;28;20067;-77
2023/01/09 12:28:51;;;;;;;0.00;0.00;;;7.70;99.90;;;;;;5037939;28;20045;-77
2023/01/09 12:31:57;;;;;;;0.90;0.35;;;7.80;99.90;;;;;;5038265;28;20537;-76
2023/01/09 12:34:26;;;;;;;0.10;0.10;;;7.80;99.90;;;;;;5034626;28;20038;-77
2023/01/09 12:37:11;;;;;;;0.40;0.10;;;7.80;99.90;;;;;;5038729;28;20025;-77
2023/01/09 12:39:55;;;;;;;0.17;0.00;;;7.80;99.90;;;;;;5039045;28;20029;-77
2023/01/09 12:42:39;;;;;;;0.20;0.20;;;7.80;99.90;;;;;;5039261;28;20021;-77
2023/01/09 12:45:16;;;;;;;1.67;0.10;;;7.80;99.90;;;;;;5039257;28;20095;-77
2023/01/09 12:47:51;;;;;;;1.23;0.38;;;7.80;99.90;;;;;;5037176;28;20414;-76
2023/01/09 12:50:44;;;;;;;1.52;0.45;;;7.70;99.90;;;;;;5037212;28;20029;-77
2023/01/09 12:53:19;;;;;;;0.35;0.35;;;7.70;99.90;;;;;;5039357;28;20082;-78
2023/01/09 12:55:51;;;;;;;0.32;0.32;;;7.70;99.90;;;;;;5039908;28;20036;-78
2023/01/09 12:58:49;;;;;;;1.23;0.35;;;7.70;99.90;;;;;;5039526;28;20048;-78
2023/01/09 13:01:28;;;;;;;0.70;0.38;;;7.70;99.90;;;;;;5037833;28;20021;-78
2023/01/09 13:04:15;;;;;;;0.50;0.20;;;7.70;99.90;;;;;;5039002;28;20026;-78
2023/01/09 13:06:47;;;;;;;0.52;0.38;;;7.70;99.90;;;;;;5038598;28;20284;-79
2023/01/09 13:09:43;;;;;;;1.63;0.20;;;7.70;99.90;;;;;;5038974;28;20358;-78
2023/01/09 13:12:17;;;;;;;1.10;0.35;;;7.70;99.90;;;;;;5037222;28;20363;-77
2023/01/09 13:15:05;;;;;;;1.10;0.50;;;7.70;99.90;;;;;;5038036;28;20025;-79
2023/01/09 13:17:45;;;;;;;1.08;0.50;;;7.60;99.90;;;;;;5038726;28;20022;-79
2023/01/09 13:20:31;;;;;;;1.52;0.52;;;7.60;99.90;;;;;;5038806;28;20116;-78